createdAt,value
2022-08-14T00:00:40.082Z,56.84
2022-08-14T00:02:47.299Z,57.04
2022-08-14T00:04:53.711Z,56.97
2022-08-14T00:06:59.121Z,57.02
2022-08-14T00:09:03.974Z,57.02
2022-08-14T00:11:09.403Z,57.05
2022-08-14T00:13:15.661Z,57.08
2022-08-14T00:15:22.806Z,57.13
2022-08-14T00:17:27.301Z,57.11
2022-08-14T00:19:34.005Z,57.03
2022-08-14T00:21:40.229Z,57.06
2022-08-14T00:23:54.835Z,57.04
2022-08-14T00:26:23.975Z,56.99
2022-08-14T00:28:36.755Z,56.9
2022-08-14T00:30:44.783Z,56.91
2022-08-14T00:33:01.754Z,56.82
2022-08-14T00:35:12.632Z,56.71
2022-08-14T00:37:18.471Z,56.78
2022-08-14T00:39:23.291Z,56.7
2022-08-14T00:41:30.242Z,56.67
2022-08-14T00:43:44.265Z,56.61
2022-08-14T00:45:54.879Z,56.67
2022-08-14T00:48:02.104Z,56.68
2022-08-14T00:50:18.761Z,56.63
2022-08-14T00:52:27.837Z,56.59
2022-08-14T00:54:32.560Z,56.53
2022-08-14T00:56:39.571Z,56.53
2022-08-14T00:58:49.413Z,56.54
2022-08-14T01:01:00.496Z,56.54
2022-08-14T01:03:06.530Z,56.47
2022-08-14T01:05:12.952Z,56.36
2022-08-14T01:07:18.903Z,56.43
2022-08-14T01:09:23.421Z,56.38
2022-08-14T01:11:37.612Z,56.43
2022-08-14T01:13:45.326Z,56.38
2022-08-14T01:16:05.858Z,56.33
2022-08-14T01:18:11.950Z,56.32
2022-08-14T01:20:30.935Z,56.34
2022-08-14T01:22:35.932Z,56.37
2022-08-14T01:24:44.445Z,56.34
2022-08-14T01:26:52.890Z,56.4
2022-08-14T01:28:59.259Z,56.41
2022-08-14T01:31:05.390Z,56.33
2022-08-14T01:33:10.948Z,56.38
2022-08-14T01:36:23.890Z,56.34
2022-08-14T01:38:28.911Z,56.35
2022-08-14T01:40:43.350Z,56.3
2022-08-14T01:42:48.661Z,56.35
2022-08-14T01:44:57.120Z,56.33
2022-08-14T01:47:07.010Z,56.33
2022-08-14T01:49:11.642Z,56.27
2022-08-14T01:51:22.200Z,56.33
2022-08-14T01:53:37.084Z,56.31
2022-08-14T01:55:44.674Z,56.25
2022-08-14T01:58:28.690Z,56.26
2022-08-14T02:00:38.352Z,56.23
2022-08-14T02:02:53.829Z,56.18
2022-08-14T02:05:00.198Z,56.2
2022-08-14T02:07:16.592Z,56.16
2022-08-14T02:09:41.018Z,56.12
2022-08-14T02:11:46.650Z,56.18
2022-08-14T02:14:06.929Z,56.12
2022-08-14T02:16:24.618Z,56.07
2022-08-14T02:18:34.755Z,56.12
2022-08-14T02:20:40.950Z,56.05
2022-08-14T02:22:50.082Z,56.03
2022-08-14T02:24:58.137Z,56.06
2022-08-14T02:28:59.865Z,56.07
2022-08-14T02:31:09.886Z,56.08
2022-08-14T02:33:15.201Z,56.09
2022-08-14T02:35:32.663Z,56.03
2022-08-14T02:37:50.882Z,56.02
2022-08-14T02:39:55.712Z,56.05
2022-08-14T02:42:05.563Z,56.02
2022-08-14T02:44:10.078Z,55.99
2022-08-14T02:46:24.603Z,56.05
2022-08-14T02:49:07.522Z,55.93
2022-08-14T02:51:12.066Z,55.97
2022-08-14T02:53:17.702Z,55.94
2022-08-14T02:55:23.100Z,55.91
2022-08-14T02:57:42.195Z,55.86
2022-08-14T02:59:48.362Z,55.82
2022-08-14T03:01:57.932Z,55.8
2022-08-14T03:04:03.137Z,55.81
2022-08-14T03:06:10.840Z,55.78
2022-08-14T03:08:20.026Z,55.74
2022-08-14T03:10:35.125Z,55.74
2022-08-14T03:12:39.721Z,55.73
2022-08-14T03:14:46.310Z,55.74
2022-08-14T03:16:53.288Z,55.88
2022-08-14T03:19:00.780Z,55.81
2022-08-14T03:21:05.909Z,55.76
2022-08-14T03:23:10.921Z,55.69
2022-08-14T03:25:17.567Z,55.73
2022-08-14T03:27:35.210Z,55.63
2022-08-14T03:29:52.248Z,55.68
2022-08-14T03:31:58.892Z,55.66
2022-08-14T03:34:11.213Z,55.57
2022-08-14T03:39:23.954Z,55.58
2022-08-14T03:41:34.273Z,55.47
2022-08-14T03:43:42.723Z,55.47
2022-08-14T03:45:53.630Z,55.46
2022-08-14T03:48:03.727Z,55.44
2022-08-14T03:50:33.231Z,55.48
2022-08-14T03:52:57.465Z,55.58
2022-08-14T03:55:04.977Z,55.55
2022-08-14T03:57:09.520Z,55.59
2022-08-14T03:59:20.147Z,55.47
2022-08-14T04:01:38.954Z,55.51
2022-08-14T04:03:48.984Z,55.48
2022-08-14T04:06:01.272Z,55.56
2022-08-14T04:08:32.969Z,55.53
2022-08-14T04:10:37.664Z,55.55
2022-08-14T04:12:52.418Z,55.58
2022-08-14T04:14:56.897Z,55.53
2022-08-14T04:17:03.197Z,55.48
2022-08-14T04:19:08.487Z,55.41
2022-08-14T04:21:12.959Z,55.45
2022-08-14T04:23:33.959Z,55.42
2022-08-14T04:25:38.578Z,55.44
2022-08-14T04:28:04.806Z,55.42
2022-08-14T04:30:09.535Z,55.32
2022-08-14T04:33:20.440Z,55.22
2022-08-14T04:35:55.791Z,55.29
2022-08-14T04:38:01.280Z,55.12
2022-08-14T04:40:42.734Z,55.14
2022-08-14T04:42:53.635Z,55.2
2022-08-14T04:45:03.192Z,55.18
2022-08-14T04:47:08.014Z,55.15
2022-08-14T04:49:17.636Z,55.13
2022-08-14T04:51:24.600Z,55.23
2022-08-14T04:53:44.617Z,55.24
2022-08-14T04:55:52.720Z,55.12
2022-08-14T04:58:02.354Z,55.26
2022-08-14T05:00:18.168Z,55.23
2022-08-14T05:02:24.100Z,55.22
2022-08-14T05:04:30.342Z,55.25
2022-08-14T05:06:40.935Z,55.27
2022-08-14T05:09:01.882Z,55.33
2022-08-14T05:11:13.366Z,55.25
2022-08-14T05:13:18.082Z,55.23
2022-08-14T05:15:24.878Z,55.25
2022-08-14T05:18:17.117Z,55.17
2022-08-14T05:22:20.107Z,55.16
2022-08-14T05:24:25.381Z,55.12
2022-08-14T05:26:30.376Z,55.07
2022-08-14T05:28:35.653Z,55.08
2022-08-14T05:30:42.872Z,55.08
2022-08-14T05:32:49.471Z,55.18
2022-08-14T05:34:54.656Z,55.28
2022-08-14T05:37:07.812Z,55.29
2022-08-14T05:39:15.973Z,55.18
2022-08-14T05:41:21.825Z,55.15
2022-08-14T05:43:45.215Z,55.17
2022-08-14T05:45:51.488Z,55.19
2022-08-14T05:47:56.060Z,55.19
2022-08-14T05:50:01.289Z,55.13
2022-08-14T05:52:19.072Z,55.24
2022-08-14T05:54:42.974Z,55.17
2022-08-14T05:56:52.733Z,55.25
2022-08-14T05:59:01.540Z,55.21
2022-08-14T06:01:09.407Z,55.04
2022-08-14T06:03:15.139Z,55.12
2022-08-14T06:05:29.905Z,55.13
2022-08-14T06:07:35.492Z,55.13
2022-08-14T06:09:42.693Z,55.1
2022-08-14T06:11:59.062Z,55.06
2022-08-14T06:14:20.789Z,55.01
2022-08-14T06:16:26.834Z,55.02
2022-08-14T06:18:34.848Z,55.07
2022-08-14T06:20:42.232Z,55.05
2022-08-14T06:22:52.443Z,55.07
2022-08-14T06:24:56.950Z,55.11
2022-08-14T06:27:11.822Z,55.14
2022-08-14T06:29:18.034Z,55.21
2022-08-14T06:31:24.762Z,55.14
2022-08-14T06:35:14.740Z,55.21
2022-08-14T06:37:20.234Z,55.16
2022-08-14T06:39:40.259Z,55.16
2022-08-14T06:42:01.578Z,55.14
2022-08-14T06:44:10.704Z,55.14
2022-08-14T06:46:38.366Z,55.17
2022-08-14T06:48:44.138Z,55.15
2022-08-14T06:50:48.812Z,55.14
2022-08-14T06:52:54.174Z,55.2
2022-08-14T06:54:58.883Z,55.21
2022-08-14T06:57:04.584Z,55.24
2022-08-14T06:59:23.293Z,55.2
2022-08-14T07:01:32.075Z,55.24
2022-08-14T07:03:40.626Z,55.3
2022-08-14T07:06:00.898Z,55.38
2022-08-14T07:08:05.950Z,55.44
2022-08-14T07:10:19.033Z,55.46
2022-08-14T07:13:06.132Z,55.47
2022-08-14T07:15:11.274Z,55.49
2022-08-14T07:17:17.073Z,55.52
2022-08-14T07:19:23.099Z,55.47
2022-08-14T07:21:27.585Z,55.57
2022-08-14T07:23:33.592Z,55.58
2022-08-14T07:25:48.247Z,55.53
2022-08-14T07:27:57.011Z,55.6
2022-08-14T07:30:04.912Z,55.74
2022-08-14T07:32:35.388Z,55.94
2022-08-14T07:34:46.224Z,56.15
2022-08-14T07:37:02.926Z,56.34
2022-08-14T07:39:15.355Z,56.51
2022-08-14T07:41:19.828Z,56.7
2022-08-14T07:43:27.120Z,56.85
2022-08-14T07:45:39.159Z,56.91
2022-08-14T07:47:44.013Z,56.98
2022-08-14T07:49:56.422Z,56.95
2022-08-14T07:52:01.216Z,56.99
2022-08-14T07:54:22.790Z,56.98
2022-08-14T07:56:55.055Z,56.98
2022-08-14T07:59:01.007Z,56.98
2022-08-14T08:01:05.566Z,56.92
2022-08-14T08:03:13.963Z,56.97
2022-08-14T08:05:19.317Z,57.01
2022-08-14T08:07:23.805Z,57.19
2022-08-14T08:09:34.542Z,57.43
2022-08-14T08:11:41.819Z,57.8
2022-08-14T08:13:55.727Z,58.29
2022-08-14T08:16:00.324Z,58.43
2022-08-14T08:18:06.217Z,58.62
2022-08-14T08:20:12.887Z,58.99
2022-08-14T08:22:19.207Z,59.2
2022-08-14T08:24:24.166Z,59.53
2022-08-14T08:26:29.095Z,59.32
2022-08-14T08:28:36.793Z,59.29
2022-08-14T08:30:51.783Z,59.21
2022-08-14T08:32:56.368Z,59.28
2022-08-14T08:35:01.182Z,59.47
2022-08-14T08:37:10.273Z,59.72
2022-08-14T08:39:24.395Z,60
2022-08-14T08:41:35.411Z,59.62
2022-08-14T08:43:47.222Z,59.75
2022-08-14T08:45:53.012Z,59.64
2022-08-14T08:47:57.573Z,59.77
2022-08-14T08:50:02.553Z,60.17
2022-08-14T08:52:33.419Z,60.03
2022-08-14T08:54:39.670Z,60.03
2022-08-14T08:56:45.835Z,60.12
2022-08-14T08:58:52.386Z,59.73
2022-08-14T09:00:57.198Z,59.64
2022-08-14T09:03:02.715Z,59.27
2022-08-14T09:05:12.109Z,58.94
2022-08-14T09:07:19.125Z,58.82
2022-08-14T09:09:25.695Z,58.66
2022-08-14T09:11:38.330Z,58.22
2022-08-14T09:13:43.791Z,58.03
2022-08-14T09:15:51.977Z,58.12
2022-08-14T09:17:59.965Z,58
2022-08-14T09:20:08.056Z,57.89
2022-08-14T09:22:48.978Z,57.91
2022-08-14T09:24:54.453Z,57.76
2022-08-14T09:27:00.119Z,57.85
2022-08-14T09:29:05.187Z,58.09
2022-08-14T09:31:20.107Z,57.76
2022-08-14T09:33:25.762Z,57.72
2022-08-14T09:35:30.550Z,57.85
2022-08-14T09:37:36.974Z,57.89
2022-08-14T09:39:42.883Z,57.8
2022-08-14T09:42:35.403Z,57.93
2022-08-14T09:44:45.683Z,57.78
2022-08-14T09:46:52.365Z,57.52
2022-08-14T09:48:57.595Z,57.91
2022-08-14T09:53:19.439Z,57.84
2022-08-14T09:55:23.905Z,57.77
2022-08-14T09:57:31.400Z,57.02
2022-08-14T09:59:38.529Z,56.53
2022-08-14T10:01:53.641Z,56.48
2022-08-14T10:04:02.881Z,56
2022-08-14T10:06:10.818Z,55.94
2022-08-14T10:08:25.685Z,56.07
2022-08-14T10:10:38.684Z,57.05
2022-08-14T10:12:46.034Z,57.32
2022-08-14T10:14:55.528Z,57.52
2022-08-14T10:17:01.436Z,57.96
2022-08-14T10:19:11.225Z,58.12
2022-08-14T10:21:17.491Z,58.06
2022-08-14T10:23:25.007Z,58.26
2022-08-14T10:25:39.523Z,58.01
2022-08-14T10:27:57.973Z,58.3
2022-08-14T10:30:02.685Z,58.14
2022-08-14T10:32:52.017Z,58.42
2022-08-14T10:34:57.548Z,58.7
2022-08-14T10:37:15.433Z,59.17
2022-08-14T10:39:20.426Z,59.42
2022-08-14T10:41:46.634Z,59.72
2022-08-14T10:43:53.839Z,59.9
2022-08-14T10:48:07.010Z,60.2
2022-08-14T10:50:16.013Z,60.38
2022-08-14T10:52:26.493Z,60.61
2022-08-14T10:54:42.014Z,60.75
2022-08-14T10:56:47.126Z,61.05
2022-08-14T10:58:53.411Z,61.05
2022-08-14T11:00:59.412Z,61.08
2022-08-14T11:03:06.694Z,60.94
2022-08-14T11:05:11.426Z,60.66
2022-08-14T11:07:22.561Z,60.48
2022-08-14T11:09:34.315Z,60.02
2022-08-14T11:11:40.174Z,60.06
2022-08-14T11:13:46.423Z,60.05
2022-08-14T11:15:53.670Z,60.27
2022-08-14T11:18:03.888Z,59.88
2022-08-14T11:20:17.676Z,59.96
2022-08-14T11:23:10.074Z,59.89
2022-08-14T11:25:17.618Z,59.85
2022-08-14T11:27:35.240Z,59.82
2022-08-14T11:29:41.342Z,59.96
2022-08-14T11:31:52.863Z,59.94
2022-08-14T11:33:59.293Z,59.85
2022-08-14T11:36:19.469Z,59.94
2022-08-14T11:38:27.932Z,60.09
2022-08-14T11:40:37.361Z,60.33
2022-08-14T11:43:01.347Z,60.57
2022-08-14T11:45:23.329Z,60.7
2022-08-14T11:47:43.634Z,60.82
2022-08-14T11:49:53.990Z,60.99
2022-08-14T11:52:03.486Z,61.18
2022-08-14T11:54:13.106Z,61.24
2022-08-14T11:56:31.722Z,61.23
2022-08-14T11:58:36.210Z,61.35
2022-08-14T12:00:48.687Z,61.25
2022-08-14T12:03:06.940Z,61.28
2022-08-14T12:05:11.998Z,61.45
2022-08-14T12:07:23.342Z,61.5
2022-08-14T12:09:28.093Z,61.55
2022-08-14T12:11:35.128Z,61.54
2022-08-14T12:13:57.248Z,61.61
2022-08-14T12:16:20.553Z,61.71
2022-08-14T12:18:27.635Z,61.69
2022-08-14T12:20:34.750Z,61.53
2022-08-14T12:22:43.309Z,61.51
2022-08-14T12:24:48.525Z,61.59
2022-08-14T12:27:00.146Z,61.77
2022-08-14T12:29:08.641Z,61.8
2022-08-14T12:31:13.218Z,61.75
2022-08-14T12:33:20.574Z,61.85
2022-08-14T12:35:30.764Z,61.61
2022-08-14T12:37:41.049Z,61.78
2022-08-14T12:39:49.294Z,61.71
2022-08-14T12:41:58.296Z,61.61
2022-08-14T12:44:04.201Z,61.34
2022-08-14T12:46:29.405Z,60.91
2022-08-14T12:48:36.888Z,60.78
2022-08-14T12:50:50.870Z,60.73
2022-08-14T12:53:19.130Z,60.77
2022-08-14T12:56:00.667Z,60.81
2022-08-14T12:58:53.386Z,60.85
2022-08-14T13:01:21.988Z,60.61
2022-08-14T13:03:29.111Z,60.54
2022-08-14T13:05:35.354Z,60.41
2022-08-14T13:07:46.688Z,60.37
2022-08-14T13:09:51.678Z,60.3
2022-08-14T13:13:03.258Z,60.19
2022-08-14T13:15:16.949Z,60.03
2022-08-14T13:17:23.966Z,60
2022-08-14T13:19:31.371Z,59.98
2022-08-14T13:22:29.429Z,60.26
2022-08-14T13:24:43.077Z,60.21
2022-08-14T13:26:49.237Z,60.16
2022-08-14T13:29:06.535Z,60.05
2022-08-14T13:31:14.934Z,60.11
2022-08-14T13:33:23.668Z,60.01
2022-08-14T13:35:28.102Z,59.99
2022-08-14T13:37:34.264Z,60.35
2022-08-14T13:39:43.955Z,60.39
2022-08-14T13:41:57.648Z,60.25
2022-08-14T13:44:02.904Z,60.41
2022-08-14T13:46:07.742Z,60.34
2022-08-14T13:48:37.430Z,60.14
2022-08-14T13:50:43.197Z,60.12
2022-08-14T13:52:55.940Z,60.49
2022-08-14T13:55:01.336Z,60.48
2022-08-14T13:57:05.907Z,60.67
2022-08-14T13:59:10.838Z,60.52
2022-08-14T14:01:16.231Z,60.68
2022-08-14T14:03:24.217Z,60.93
2022-08-14T14:05:55.877Z,61
2022-08-14T14:08:02.734Z,60.98
2022-08-14T14:10:09.716Z,61.06
2022-08-14T14:12:57.943Z,61.32
2022-08-14T14:15:10.612Z,61.23
2022-08-14T14:17:15.716Z,61.38
2022-08-14T14:19:20.824Z,60.93
2022-08-14T14:21:33.852Z,60.75
2022-08-14T14:23:39.683Z,60.77
2022-08-14T14:25:58.103Z,60.65
2022-08-14T14:28:02.820Z,60.58
2022-08-14T14:30:56.947Z,60.65
2022-08-14T14:33:47.218Z,60.7
2022-08-14T14:35:53.628Z,60.72
2022-08-14T14:37:59.475Z,60.82
2022-08-14T14:41:02.421Z,61.05
2022-08-14T14:43:09.850Z,61.24
2022-08-14T14:45:18.884Z,61.45
2022-08-14T14:47:26.558Z,61.2
2022-08-14T14:49:56.450Z,60.98
2022-08-14T14:52:00.999Z,60.99
2022-08-14T14:54:05.900Z,60.95
2022-08-14T14:56:55.920Z,60.85
2022-08-14T14:59:01.680Z,60.65
2022-08-14T15:01:11.718Z,60.38
2022-08-14T15:03:18.929Z,60.12
2022-08-14T15:05:24.095Z,60
2022-08-14T15:07:35.053Z,59.69
2022-08-14T15:09:42.116Z,59.54
2022-08-14T15:11:47.979Z,59.29
2022-08-14T15:13:55.246Z,59.13
2022-08-14T15:16:01.425Z,58.92
2022-08-14T15:18:40.293Z,58.84
2022-08-14T15:20:51.631Z,58.87
2022-08-14T15:22:57.608Z,58.93
2022-08-14T15:25:03.385Z,58.91
2022-08-14T15:27:09.545Z,58.86
2022-08-14T15:29:16.056Z,58.84
2022-08-14T15:31:21.266Z,58.88
2022-08-14T15:33:36.711Z,58.98
2022-08-14T15:36:29.311Z,59.03
2022-08-14T15:38:46.167Z,59.04
2022-08-14T15:40:58.713Z,59.06
2022-08-14T15:43:10.062Z,59.16
2022-08-14T15:45:16.969Z,59.29
2022-08-14T15:47:32.229Z,59.39
2022-08-14T15:49:40.770Z,59.36
2022-08-14T15:51:45.767Z,59.32
2022-08-14T15:53:53.119Z,59.5
2022-08-14T15:55:58.307Z,59.54
2022-08-14T15:58:15.367Z,59.56
2022-08-14T16:00:51.798Z,59.63
2022-08-14T16:02:57.721Z,59.66
2022-08-14T16:05:07.739Z,59.74
2022-08-14T16:07:16.854Z,59.79
2022-08-14T16:09:23.950Z,59.75
2022-08-14T16:11:34.081Z,59.56
2022-08-14T16:13:44.139Z,59.37
2022-08-14T16:15:56.486Z,59.33
2022-08-14T16:18:01.026Z,59.31
2022-08-14T16:20:06.006Z,59.27
2022-08-14T16:23:02.479Z,59.12
2022-08-14T16:25:07.395Z,59.08
2022-08-14T16:27:12.739Z,59.02
2022-08-14T16:29:26.262Z,59.01
2022-08-14T16:31:39.364Z,58.95
2022-08-14T16:34:49.197Z,59.04
2022-08-14T16:36:55.744Z,59.05
2022-08-14T16:39:02.308Z,58.97
2022-08-14T16:41:06.839Z,58.7
2022-08-14T16:43:16.300Z,58.57
2022-08-14T16:45:25.595Z,58.7
2022-08-14T16:47:37.536Z,58.85
2022-08-14T16:50:10.239Z,58.83
2022-08-14T16:53:01.821Z,58.6
2022-08-14T16:55:07.884Z,58.59
2022-08-14T16:57:15.908Z,58.49
2022-08-14T16:59:52.116Z,58.33
2022-08-14T17:02:00.723Z,58.24
2022-08-14T17:04:24.571Z,58.16
2022-08-14T17:06:37.322Z,58.4
2022-08-14T17:08:48.986Z,57.97
2022-08-14T17:10:55.272Z,57.87
2022-08-14T17:13:02.818Z,57.9
2022-08-14T17:15:20.403Z,57.92
2022-08-14T17:17:25.628Z,57.93
2022-08-14T17:19:38.098Z,57.98
2022-08-14T17:21:51.455Z,58.06
2022-08-14T17:23:56.325Z,58.14
2022-08-14T17:26:00.891Z,58.2
2022-08-14T17:28:55.251Z,58.16
2022-08-14T17:31:03.455Z,58.14
2022-08-14T17:33:10.871Z,58.1
2022-08-14T17:35:19.147Z,58.1
2022-08-14T17:37:25.070Z,58.08
2022-08-14T17:39:42.528Z,58.04
2022-08-14T17:42:14.272Z,58.05
2022-08-14T17:44:47.770Z,58.12
2022-08-14T17:46:58.390Z,58.87
2022-08-14T17:49:19.385Z,59.05
2022-08-14T17:51:31.172Z,59.15
2022-08-14T17:54:04.017Z,58.86
2022-08-14T17:56:13.162Z,58.65
2022-08-14T17:58:23.905Z,58.54
2022-08-14T18:00:32.801Z,58.71
2022-08-14T18:02:38.954Z,58.76
2022-08-14T18:04:47.587Z,58.77
2022-08-14T18:08:00.543Z,58.94
2022-08-14T18:10:58.587Z,58.89
2022-08-14T18:13:04.336Z,58.87
2022-08-14T18:15:18.841Z,58.8
2022-08-14T18:17:27.613Z,58.78
2022-08-14T18:19:36.634Z,58.72
2022-08-14T18:21:59.583Z,59.05
2022-08-14T18:24:04.771Z,59.08
2022-08-14T18:26:42.106Z,59.13
2022-08-14T18:28:54.357Z,59.05
2022-08-14T18:31:05.593Z,59
2022-08-14T18:33:17.779Z,58.92
2022-08-14T18:36:52.850Z,58.9
2022-08-14T18:39:02.594Z,59.02
2022-08-14T18:41:07.607Z,59.06
2022-08-14T18:43:13.343Z,59.21
2022-08-14T18:45:30.261Z,59.17
2022-08-14T18:48:17.954Z,58.98
2022-08-14T18:50:32.705Z,58.9
2022-08-14T18:52:37.776Z,59.03
2022-08-14T18:55:00.729Z,58.94
2022-08-14T18:57:08.952Z,59.03
2022-08-14T18:59:14.271Z,59.11
2022-08-14T19:01:23.981Z,59.04
2022-08-14T19:03:28.956Z,58.92
2022-08-14T19:05:34.413Z,58.9
2022-08-14T19:07:40.067Z,59.22
2022-08-14T19:09:53.377Z,59.41
2022-08-14T19:11:58.420Z,59.81
2022-08-14T19:14:07.407Z,59.75
2022-08-14T19:16:17.853Z,59.72
2022-08-14T19:18:29.222Z,59.57
2022-08-14T19:20:39.849Z,59.63
2022-08-14T19:22:45.345Z,59.68
2022-08-14T19:24:54.890Z,59.41
2022-08-14T19:27:01.376Z,59.04
2022-08-14T19:29:11.851Z,58.8
2022-08-14T19:31:23.718Z,58.62
2022-08-14T19:33:28.732Z,58.41
2022-08-14T19:36:01.535Z,58.22
2022-08-14T19:38:06.536Z,57.97
2022-08-14T19:40:21.185Z,57.79
2022-08-14T19:42:32.494Z,57.74
2022-08-14T19:44:41.300Z,57.75
2022-08-14T19:47:11.427Z,57.78
2022-08-14T19:50:30.825Z,57.98
2022-08-14T19:52:48.073Z,58.46
2022-08-14T19:54:53.932Z,58.54
2022-08-14T19:57:00.986Z,58.52
2022-08-14T19:59:06.739Z,58.58
2022-08-14T20:01:12.996Z,58.69
2022-08-14T20:04:02.675Z,58.85
2022-08-14T20:06:11.889Z,58.9
2022-08-14T20:12:03.207Z,59.13
2022-08-14T20:14:23.073Z,58.97
2022-08-14T20:16:35.748Z,59.09
2022-08-14T20:18:52.098Z,59.08
2022-08-14T20:20:56.587Z,59.2
2022-08-14T20:23:12.305Z,59.08
2022-08-14T20:25:18.680Z,58.97
2022-08-14T20:27:23.925Z,58.79
2022-08-14T20:29:42.851Z,58.85
2022-08-14T20:31:56.286Z,58.81
2022-08-14T20:34:04.252Z,58.79
2022-08-14T20:36:11.019Z,59.07
2022-08-14T20:38:34.556Z,59.08
2022-08-14T20:40:52.702Z,58.91
2022-08-14T20:43:01.038Z,59.01
2022-08-14T20:45:06.291Z,58.88
2022-08-14T20:47:18.055Z,58.8
2022-08-14T20:49:23.347Z,58.75
2022-08-14T20:51:38.605Z,58.71
2022-08-14T20:53:56.898Z,59.14
2022-08-14T20:56:32.990Z,59.24
2022-08-14T20:58:51.554Z,59.4
2022-08-14T21:00:57.149Z,59.22
2022-08-14T21:03:03.245Z,59.24
2022-08-14T21:05:20.827Z,59.15
2022-08-14T21:07:38.603Z,59.03
2022-08-14T21:10:43.799Z,58.99
2022-08-14T21:14:28.325Z,58.85
2022-08-14T21:16:59.609Z,58.79
2022-08-14T21:19:06.603Z,58.57
2022-08-14T21:21:14.260Z,58.33
2022-08-14T21:23:19.174Z,58.28
2022-08-14T21:25:25.457Z,58.26
2022-08-14T21:27:39.508Z,58.29
2022-08-14T21:29:57.644Z,58.37
2022-08-14T21:32:22.634Z,58.46
2022-08-14T21:34:34.640Z,58.49
2022-08-14T21:36:43.741Z,58.52
2022-08-14T21:38:50.428Z,58.56
2022-08-14T21:40:55.213Z,58.64
2022-08-14T21:42:59.736Z,58.69
2022-08-14T21:45:04.562Z,58.75
2022-08-14T21:47:11.999Z,58.84
2022-08-14T21:49:17.528Z,58.82
2022-08-14T21:53:00.457Z,58.92
2022-08-14T21:55:13.398Z,58.96
2022-08-14T21:57:18.601Z,58.94
2022-08-14T22:00:39.597Z,59.06
2022-08-14T22:02:56.342Z,59.07
2022-08-14T22:05:07.839Z,59.06
2022-08-14T22:07:18.290Z,59.05
2022-08-14T22:09:37.180Z,59.09
2022-08-14T22:11:42.771Z,59.09
2022-08-14T22:13:51.011Z,59.14
2022-08-14T22:16:03.477Z,59.15
2022-08-14T22:18:10.067Z,59.19
2022-08-14T22:20:24.849Z,59.19
2022-08-14T22:22:30.391Z,59.12
2022-08-14T22:25:01.436Z,59.07
2022-08-14T22:27:09.998Z,59.11
2022-08-14T22:29:18.501Z,59.08
2022-08-14T22:31:24.972Z,59.06
2022-08-14T22:33:40.332Z,59.02
2022-08-14T22:35:57.306Z,58.97
2022-08-14T22:38:50.566Z,58.89
2022-08-14T22:41:42.362Z,58.85
2022-08-14T22:43:49.625Z,58.74
2022-08-14T22:46:03.112Z,58.7
2022-08-14T22:48:19.309Z,58.75
2022-08-14T22:50:35.433Z,58.79
2022-08-14T22:52:56.653Z,58.8
2022-08-14T22:55:07.932Z,58.88
2022-08-14T22:57:12.588Z,58.87
2022-08-14T22:59:17.874Z,58.97
2022-08-14T23:02:04.837Z,58.96
2022-08-14T23:04:55.616Z,59.15
2022-08-14T23:07:07.404Z,59.09
2022-08-14T23:09:56.125Z,58.94
2022-08-14T23:12:02.958Z,58.85
2022-08-14T23:14:26.731Z,58.8
2022-08-14T23:16:36.758Z,58.72
2022-08-14T23:18:42.552Z,58.79
2022-08-14T23:20:47.081Z,58.8
2022-08-14T23:22:53.734Z,58.82
2022-08-14T23:25:00.078Z,58.86
2022-08-14T23:27:31.811Z,58.89
2022-08-14T23:30:07.866Z,58.94
2022-08-14T23:32:37.291Z,58.93
2022-08-14T23:34:52.760Z,58.93
2022-08-14T23:37:04.756Z,58.89
2022-08-14T23:39:21.216Z,58.88
2022-08-14T23:41:54.050Z,58.82
2022-08-14T23:44:00.227Z,58.79
2022-08-14T23:46:16.046Z,58.76
2022-08-14T23:48:30.679Z,58.73
2022-08-14T23:50:40.592Z,58.73
2022-08-14T23:53:08.794Z,58.74
2022-08-14T23:55:15.576Z,58.73
2022-08-14T23:57:24.911Z,58.73
2022-08-14T23:59:54.525Z,58.75
